createdAt,value
2023-04-11T00:01:30.039Z,85.07
2023-04-11T00:04:45.674Z,85.00
2023-04-11T00:07:54.532Z,85.27
2023-04-11T00:11:01.163Z,85.65
2023-04-11T00:14:12.084Z,84.86
2023-04-11T00:17:19.510Z,85.13
2023-04-11T00:20:25.956Z,87.07
2023-04-11T00:23:35.718Z,87.66
2023-04-11T00:26:41.726Z,89.10
2023-04-11T00:29:53.145Z,91.01
2023-04-11T00:32:59.161Z,92.19
2023-04-11T00:36:09.633Z,92.18
2023-04-11T00:39:19.127Z,92.83
2023-04-11T00:42:26.061Z,93.39
2023-04-11T00:45:32.434Z,93.83
2023-04-11T00:48:39.956Z,94.70
2023-04-11T00:51:47.652Z,94.69
2023-04-11T00:54:57.746Z,95.54
2023-04-11T00:58:04.759Z,95.66
2023-04-11T01:01:14.860Z,95.95
2023-04-11T01:04:21.661Z,96.35
2023-04-11T01:07:29.340Z,96.36
2023-04-11T01:10:38.938Z,96.29
2023-04-11T01:13:56.777Z,96.12
2023-04-11T01:17:05.408Z,95.91
2023-04-11T01:20:13.240Z,94.68
2023-04-11T01:23:28.044Z,95.12
2023-04-11T01:26:34.090Z,95.27
2023-04-11T01:29:44.580Z,95.15
2023-04-11T01:32:51.036Z,94.88
2023-04-11T01:35:58.098Z,94.41
2023-04-11T01:39:07.127Z,94.48
2023-04-11T01:42:15.979Z,94.94
2023-04-11T01:45:23.475Z,95.11
2023-04-11T01:48:31.695Z,95.62
2023-04-11T01:51:41.451Z,95.88
2023-04-11T01:54:52.082Z,95.62
2023-04-11T01:57:59.145Z,94.84
2023-04-11T02:01:06.025Z,94.89
2023-04-11T02:04:12.208Z,94.79
2023-04-11T02:07:21.279Z,93.53
2023-04-11T02:10:38.493Z,93.64
2023-04-11T02:13:45.224Z,92.85
2023-04-11T02:16:56.041Z,93.29
2023-04-11T02:20:11.978Z,93.31
2023-04-11T02:23:22.165Z,92.79
2023-04-11T02:26:32.968Z,92.71
2023-04-11T02:29:41.964Z,92.63
2023-04-11T02:32:49.707Z,92.13
2023-04-11T02:35:55.919Z,91.77
2023-04-11T02:39:02.817Z,92.44
2023-04-11T02:42:11.575Z,93.00
2023-04-11T02:45:18.379Z,92.85
2023-04-11T02:48:24.296Z,92.81
2023-04-11T02:51:31.538Z,92.84
2023-04-11T02:54:37.721Z,93.09
2023-04-11T02:57:47.247Z,92.63
2023-04-11T03:00:56.544Z,92.14
2023-04-11T03:04:04.088Z,92.09
2023-04-11T03:07:28.312Z,91.48
2023-04-11T03:10:37.495Z,91.14
2023-04-11T03:13:47.506Z,91.24
2023-04-11T03:16:54.272Z,91.73
2023-04-11T03:20:01.290Z,92.09
2023-04-11T03:23:11.051Z,92.22
2023-04-11T03:26:18.938Z,92.47
2023-04-11T03:29:29.130Z,92.71
2023-04-11T03:32:44.462Z,92.88
2023-04-11T03:35:51.377Z,93.24
2023-04-11T03:39:00.709Z,93.31
2023-04-11T03:42:08.146Z,93.35
2023-04-11T03:45:17.577Z,92.42
2023-04-11T03:48:26.764Z,91.66
2023-04-11T03:51:38.205Z,91.14
2023-04-11T03:54:47.889Z,90.80
2023-04-11T03:57:59.124Z,89.72
2023-04-11T04:01:13.127Z,89.88
2023-04-11T04:04:19.806Z,89.41
2023-04-11T04:07:34.106Z,87.72
2023-04-11T04:10:49.875Z,87.88
2023-04-11T04:13:56.811Z,87.69
2023-04-11T04:17:06.052Z,87.46
2023-04-11T04:20:15.092Z,87.10
2023-04-11T04:23:33.309Z,87.99
2023-04-11T04:27:02.268Z,87.40
2023-04-11T04:30:29.191Z,85.93
2023-04-11T04:33:49.864Z,83.41
2023-04-11T04:37:02.353Z,81.86
2023-04-11T04:40:20.904Z,80.97
2023-04-11T04:43:36.958Z,80.72
2023-04-11T04:47:13.044Z,80.96
2023-04-11T04:50:22.033Z,80.08
2023-04-11T04:53:35.006Z,80.13
2023-04-11T04:56:41.811Z,79.71
2023-04-11T04:59:50.513Z,81.31
2023-04-11T05:02:57.904Z,81.80
2023-04-11T05:06:12.764Z,80.55
2023-04-11T05:09:24.525Z,79.99
2023-04-11T05:12:35.945Z,80.00
2023-04-11T05:15:51.671Z,79.35
2023-04-11T05:19:05.108Z,78.55
2023-04-11T05:22:16.805Z,78.55
2023-04-11T05:25:29.336Z,78.51
2023-04-11T05:28:35.281Z,77.54
2023-04-11T05:31:46.443Z,75.58
2023-04-11T05:34:59.468Z,73.67
2023-04-11T05:38:17.982Z,71.59
2023-04-11T05:41:24.280Z,69.96
2023-04-11T05:44:31.060Z,68.43
2023-04-11T05:47:37.192Z,67.69
2023-04-11T05:50:44.346Z,67.33
2023-04-11T05:53:52.973Z,69.81
2023-04-11T05:56:59.770Z,72.70
2023-04-11T06:00:16.990Z,73.10
2023-04-11T06:03:23.926Z,72.07
2023-04-11T06:06:29.958Z,72.24
2023-04-11T06:09:39.673Z,74.48
2023-04-11T06:12:45.775Z,74.43
2023-04-11T06:15:52.986Z,74.72
2023-04-11T06:18:59.032Z,74.02
2023-04-11T06:22:11.909Z,74.72
2023-04-11T06:25:20.891Z,75.71
2023-04-11T06:28:27.765Z,78.11
2023-04-11T06:31:33.945Z,80.23
2023-04-11T06:34:42.517Z,80.04
2023-04-11T06:37:48.472Z,78.94
2023-04-11T06:40:58.660Z,78.45
2023-04-11T06:44:04.665Z,77.52
2023-04-11T06:47:11.576Z,77.83
2023-04-11T06:50:17.855Z,78.64
2023-04-11T06:53:24.689Z,78.83
2023-04-11T06:56:37.442Z,76.76
2023-04-11T06:59:44.288Z,79.17
2023-04-11T07:02:51.125Z,79.61
2023-04-11T07:05:58.114Z,79.95
2023-04-11T07:09:04.181Z,79.65
2023-04-11T07:12:13.695Z,78.42
2023-04-11T07:15:20.186Z,78.61
2023-04-11T07:18:27.763Z,77.43
2023-04-11T07:21:34.450Z,74.87
2023-04-11T07:24:43.889Z,74.79
2023-04-11T07:27:53.689Z,72.96
2023-04-11T07:31:01.034Z,72.25
2023-04-11T07:34:07.170Z,69.38
2023-04-11T07:37:14.020Z,69.81
2023-04-11T07:40:20.140Z,69.73
2023-04-11T07:43:31.656Z,70.39
2023-04-11T07:46:38.038Z,69.61
2023-04-11T07:49:47.381Z,72.38
2023-04-11T07:52:58.977Z,71.95
2023-04-11T07:56:05.785Z,73.18
2023-04-11T07:59:16.271Z,72.91
2023-04-11T08:02:23.709Z,72.20
2023-04-11T08:05:29.878Z,72.43
2023-04-11T08:08:36.733Z,73.73
2023-04-11T08:11:42.698Z,73.72
2023-04-11T08:14:54.598Z,72.54
2023-04-11T08:18:00.633Z,72.53
2023-04-11T08:21:21.226Z,71.34
2023-04-11T08:24:27.350Z,69.77
2023-04-11T08:27:34.200Z,66.71
2023-04-11T08:30:43.035Z,65.89
2023-04-11T08:33:49.937Z,64.42
2023-04-11T08:36:56.287Z,63.77
2023-04-11T08:40:12.001Z,62.84
2023-04-11T08:43:22.704Z,60.12
2023-04-11T08:46:36.563Z,61.61
2023-04-11T08:49:42.722Z,58.75
2023-04-11T08:52:56.201Z,59.02
2023-04-11T08:56:05.034Z,58.00
2023-04-11T08:59:12.033Z,57.46
2023-04-11T09:02:21.147Z,55.48
2023-04-11T09:05:29.842Z,58.45
2023-04-11T09:08:42.245Z,57.31
2023-04-11T09:11:56.806Z,57.39
2023-04-11T09:15:21.910Z,55.67
2023-04-11T09:18:39.954Z,55.71
2023-04-11T09:21:53.455Z,56.04
2023-04-11T09:25:06.873Z,53.21
2023-04-11T09:28:15.983Z,50.80
2023-04-11T09:31:24.159Z,53.71
2023-04-11T09:34:33.107Z,51.82
2023-04-11T09:37:49.131Z,49.61
2023-04-11T09:41:01.017Z,52.05
2023-04-11T09:44:40.090Z,49.02
2023-04-11T09:47:46.975Z,47.90
2023-04-11T09:51:03.128Z,48.61
2023-04-11T09:54:10.298Z,50.43
2023-04-11T09:57:18.117Z,48.78
2023-04-11T10:00:29.672Z,50.35
2023-04-11T10:03:38.898Z,48.40
2023-04-11T10:07:06.727Z,47.81
2023-04-11T10:10:20.159Z,48.65
2023-04-11T10:13:45.524Z,48.76
2023-04-11T10:17:21.251Z,48.94
2023-04-11T10:20:49.984Z,48.71
2023-04-11T10:24:18.207Z,47.14
2023-04-11T10:27:53.759Z,47.17
2023-04-11T10:31:07.242Z,46.26
2023-04-11T10:34:17.961Z,47.69
2023-04-11T10:37:37.096Z,48.36
2023-04-11T10:41:19.926Z,46.39
2023-04-11T10:44:26.708Z,44.89
2023-04-11T10:47:32.875Z,49.01
2023-04-11T10:50:44.204Z,48.23
2023-04-11T10:53:50.322Z,46.02
2023-04-11T10:57:09.051Z,45.51
2023-04-11T11:00:17.535Z,46.53
2023-04-11T11:03:29.788Z,44.49
2023-04-11T11:06:47.366Z,44.64
2023-04-11T11:10:08.162Z,44.61
2023-04-11T11:13:20.072Z,42.97
2023-04-11T11:16:29.616Z,42.79
2023-04-11T11:19:36.053Z,43.34
2023-04-11T11:22:42.895Z,42.15
2023-04-11T11:25:56.995Z,41.30
2023-04-11T11:29:07.033Z,43.15
2023-04-11T11:32:28.946Z,40.12
2023-04-11T11:35:36.476Z,38.72
2023-04-11T11:38:42.725Z,38.84
2023-04-11T11:41:49.811Z,40.09
2023-04-11T11:45:16.514Z,41.06
2023-04-11T11:48:26.526Z,38.34
2023-04-11T11:51:44.023Z,38.13
2023-04-11T11:54:50.890Z,37.01
2023-04-11T11:58:01.708Z,38.03
2023-04-11T12:01:11.286Z,38.72
2023-04-11T12:04:17.699Z,38.74
2023-04-11T12:07:25.384Z,38.04
2023-04-11T12:10:41.717Z,37.46
2023-04-11T12:13:48.834Z,35.55
2023-04-11T12:16:59.981Z,36.49
2023-04-11T12:20:12.979Z,36.80
2023-04-11T12:23:19.072Z,36.50
2023-04-11T12:26:26.293Z,36.36
2023-04-11T12:29:32.467Z,37.92
2023-04-11T12:32:42.049Z,36.27
2023-04-11T12:35:48.193Z,36.47
2023-04-11T12:38:55.289Z,36.62
2023-04-11T12:42:01.669Z,35.84
2023-04-11T12:45:11.194Z,37.32
2023-04-11T12:48:19.699Z,38.42
2023-04-11T12:51:26.609Z,39.69
2023-04-11T12:54:32.693Z,36.47
2023-04-11T12:57:40.034Z,35.51
2023-04-11T13:00:46.390Z,34.67
2023-04-11T13:03:56.214Z,34.54
2023-04-11T13:07:03.779Z,34.15
2023-04-11T13:10:14.476Z,35.87
2023-04-11T13:13:20.539Z,35.21
2023-04-11T13:16:27.542Z,35.23
2023-04-11T13:19:36.197Z,35.41
2023-04-11T13:22:44.998Z,36.12
2023-04-11T13:25:51.132Z,36.03
2023-04-11T13:28:58.201Z,36.88
2023-04-11T13:32:08.036Z,38.23
2023-04-11T13:35:17.543Z,39.25
2023-04-11T13:38:23.640Z,40.04
2023-04-11T13:41:32.352Z,40.35
2023-04-11T13:44:41.000Z,42.57
2023-04-11T13:47:47.982Z,42.81
2023-04-11T13:51:00.261Z,43.02
2023-04-11T13:54:07.615Z,43.82
2023-04-11T13:57:13.632Z,43.94
2023-04-11T14:00:22.873Z,43.16
2023-04-11T14:03:33.607Z,43.01
2023-04-11T14:06:43.649Z,42.65
2023-04-11T14:09:49.665Z,42.74
2023-04-11T14:12:56.549Z,42.57
2023-04-11T14:16:09.017Z,43.64
2023-04-11T14:19:16.715Z,44.45
2023-04-11T14:22:26.585Z,45.29
2023-04-11T14:25:33.597Z,45.88
2023-04-11T14:28:39.813Z,46.46
2023-04-11T14:31:47.466Z,46.83
2023-04-11T14:34:55.025Z,47.53
2023-04-11T14:38:06.014Z,49.26
2023-04-11T14:41:12.050Z,48.77
2023-04-11T14:44:19.188Z,49.58
2023-04-11T14:47:25.416Z,50.71
2023-04-11T14:50:32.364Z,51.59
2023-04-11T14:53:41.178Z,53.01
2023-04-11T14:56:48.519Z,54.34
2023-04-11T14:59:54.993Z,55.17
2023-04-11T15:03:02.162Z,56.70
2023-04-11T15:06:12.588Z,57.28
2023-04-11T15:09:22.799Z,57.96
2023-04-11T15:12:28.912Z,58.79
2023-04-11T15:15:36.432Z,59.38
2023-04-11T15:18:42.847Z,60.59
2023-04-11T15:21:49.651Z,62.13
2023-04-11T15:24:58.643Z,63.63
2023-04-11T15:28:05.711Z,62.47
2023-04-11T15:31:16.431Z,63.62
2023-04-11T15:34:23.692Z,65.90
2023-04-11T15:37:30.720Z,66.90
2023-04-11T15:40:41.596Z,66.94
2023-04-11T15:43:47.721Z,66.58
2023-04-11T15:46:54.705Z,65.78
2023-04-11T15:50:03.188Z,66.13
2023-04-11T15:53:10.309Z,65.55
2023-04-11T15:56:20.047Z,65.04
2023-04-11T15:59:31.009Z,66.10
2023-04-11T16:02:37.416Z,66.31
2023-04-11T16:05:47.697Z,67.17
2023-04-11T16:08:54.226Z,69.54
2023-04-11T16:12:04.575Z,71.44
2023-04-11T16:15:12.290Z,73.49
2023-04-11T16:18:19.363Z,73.83
2023-04-11T16:21:25.392Z,75.72
2023-04-11T16:24:32.695Z,75.47
2023-04-11T16:27:41.426Z,75.92
2023-04-11T16:30:48.291Z,76.88
2023-04-11T16:33:56.044Z,77.84
2023-04-11T16:37:04.172Z,78.79
2023-04-11T16:40:14.079Z,79.32
2023-04-11T16:43:23.616Z,80.33
2023-04-11T16:46:29.701Z,81.25
2023-04-11T16:49:36.824Z,81.25
2023-04-11T16:52:42.900Z,78.06
2023-04-11T16:55:50.088Z,78.47
2023-04-11T16:58:59.031Z,79.33
2023-04-11T17:02:06.226Z,80.25
2023-04-11T17:05:13.404Z,79.87
2023-04-11T17:08:21.174Z,81.00
2023-04-11T17:11:27.597Z,80.94
2023-04-11T17:14:38.888Z,79.08
2023-04-11T17:17:44.860Z,79.84
2023-04-11T17:20:51.764Z,80.08
2023-04-11T17:24:01.513Z,80.88
2023-04-11T17:27:11.962Z,81.13
2023-04-11T17:30:21.524Z,81.53
2023-04-11T17:33:28.351Z,81.71
2023-04-11T17:36:36.779Z,82.21
2023-04-11T17:39:44.045Z,82.37
2023-04-11T17:42:50.381Z,82.33
2023-04-11T17:45:59.952Z,82.83
2023-04-11T17:49:06.093Z,82.43
2023-04-11T17:52:13.037Z,82.60
2023-04-11T17:56:16.265Z,82.31
2023-04-11T17:59:54.031Z,82.85
2023-04-11T18:03:03.295Z,82.29
2023-04-11T18:06:11.528Z,82.20
2023-04-11T18:09:18.852Z,81.54
2023-04-11T18:12:29.558Z,81.38
2023-04-11T18:15:36.399Z,81.94
2023-04-11T18:18:46.194Z,80.81
2023-04-11T18:21:52.347Z,81.37
2023-04-11T18:25:02.385Z,81.02
2023-04-11T18:28:08.783Z,81.13
2023-04-11T18:31:16.017Z,80.42
2023-04-11T18:34:24.818Z,82.01
2023-04-11T18:37:32.495Z,80.49
2023-04-11T18:40:38.596Z,80.89
2023-04-11T18:43:46.358Z,81.03
2023-04-11T18:46:54.860Z,81.47
2023-04-11T18:50:06.625Z,80.35
2023-04-11T18:53:13.836Z,81.50
2023-04-11T18:56:21.866Z,80.78
2023-04-11T18:59:29.745Z,80.63
2023-04-11T19:02:37.284Z,81.07
2023-04-11T19:05:47.013Z,81.97
2023-04-11T19:08:54.367Z,82.54
2023-04-11T19:12:00.891Z,82.66
2023-04-11T19:15:10.773Z,82.40
2023-04-11T19:18:17.418Z,82.90
2023-04-11T19:21:27.761Z,82.25
2023-04-11T19:24:34.426Z,82.74
2023-04-11T19:27:42.766Z,82.50
2023-04-11T19:30:52.039Z,82.40
2023-04-11T19:33:59.604Z,82.41
2023-04-11T19:37:08.970Z,81.67
2023-04-11T19:40:16.929Z,82.06
2023-04-11T19:43:23.483Z,81.85
2023-04-11T19:46:31.187Z,82.28
2023-04-11T19:49:37.918Z,81.71
2023-04-11T19:52:48.108Z,81.42
2023-04-11T19:55:55.205Z,81.63
2023-04-11T19:59:02.519Z,80.94
2023-04-11T20:02:08.918Z,81.71
2023-04-11T20:05:18.393Z,81.70
2023-04-11T20:08:27.949Z,81.91
2023-04-11T20:11:36.959Z,81.76
2023-04-11T20:14:44.203Z,81.82
2023-04-11T20:17:51.179Z,82.86
2023-04-11T20:20:57.302Z,81.94
2023-04-11T20:24:09.797Z,81.90
2023-04-11T20:27:16.021Z,82.20
2023-04-11T20:30:23.108Z,81.87
2023-04-11T20:33:29.199Z,82.13
2023-04-11T20:36:36.346Z,82.01
2023-04-11T20:39:44.921Z,82.15
2023-04-11T20:42:51.774Z,82.02
2023-04-11T20:45:57.947Z,81.58
2023-04-11T20:49:05.338Z,82.01
2023-04-11T20:52:11.593Z,82.06
2023-04-11T20:55:21.197Z,82.21
2023-04-11T20:58:27.370Z,81.83
2023-04-11T21:01:34.945Z,82.60
2023-04-11T21:04:46.733Z,82.65
2023-04-11T21:07:54.797Z,82.58
2023-04-11T21:11:04.937Z,82.56
2023-04-11T21:14:11.793Z,82.46
2023-04-11T21:17:17.745Z,82.28
2023-04-11T21:20:29.951Z,82.03
2023-04-11T21:23:36.032Z,81.97
2023-04-11T21:26:58.413Z,82.03
2023-04-11T21:30:04.614Z,82.44
2023-04-11T21:33:13.056Z,82.63
2023-04-11T21:36:20.179Z,82.10
2023-04-11T21:39:32.737Z,81.56
2023-04-11T21:42:41.475Z,81.69
2023-04-11T21:45:48.272Z,81.85
2023-04-11T21:48:54.477Z,81.58
2023-04-11T21:52:01.619Z,81.62
2023-04-11T21:55:09.801Z,81.92
2023-04-11T21:58:29.119Z,81.87
2023-04-11T22:01:35.960Z,81.97
2023-04-11T22:05:04.090Z,82.44
2023-04-11T22:08:20.229Z,81.91
2023-04-11T22:11:27.528Z,82.11
2023-04-11T22:14:38.535Z,81.94
2023-04-11T22:17:54.890Z,82.40
2023-04-11T22:21:05.443Z,82.43
2023-04-11T22:24:12.411Z,82.37
2023-04-11T22:27:18.835Z,82.07
2023-04-11T22:30:30.889Z,81.91
2023-04-11T22:33:36.825Z,81.39
2023-04-11T22:36:50.342Z,81.61
2023-04-11T22:39:56.608Z,81.46
2023-04-11T22:43:10.071Z,81.82
2023-04-11T22:46:25.850Z,81.87
2023-04-11T22:49:32.815Z,82.11
2023-04-11T22:52:42.226Z,82.84
2023-04-11T22:55:49.367Z,82.30
2023-04-11T22:58:56.349Z,82.04
2023-04-11T23:02:05.937Z,82.30
2023-04-11T23:05:12.911Z,82.60
2023-04-11T23:08:20.978Z,81.90
2023-04-11T23:11:29.915Z,82.40
2023-04-11T23:14:36.630Z,81.99
2023-04-11T23:17:45.230Z,82.02
2023-04-11T23:20:53.331Z,81.83
2023-04-11T23:23:59.753Z,81.51
2023-04-11T23:27:07.254Z,81.46
2023-04-11T23:30:17.867Z,81.77
2023-04-11T23:33:27.891Z,81.78
2023-04-11T23:36:34.058Z,81.71
2023-04-11T23:39:41.419Z,81.34
2023-04-11T23:42:48.412Z,80.75
2023-04-11T23:45:57.233Z,80.88
2023-04-11T23:49:05.883Z,80.82
2023-04-11T23:52:15.485Z,80.54
2023-04-11T23:55:21.622Z,80.59
2023-04-11T23:58:28.410Z,80.08
